sensor_id;sensor_type;location;lat;lon;timestamp;temperature;humidity
18906;DHT22;9585;51.018;4.282;2023-10-13T00:01:47;16.70;99.90
18906;DHT22;9585;51.018;4.282;2023-10-13T00:04:18;16.80;99.90
18906;DHT22;9585;51.018;4.282;2023-10-13T00:06:48;16.70;99.90
18906;DHT22;9585;51.018;4.282;2023-10-13T00:09:16;16.70;99.90
18906;DHT22;9585;51.018;4.282;2023-10-13T00:11:47;16.80;99.90
18906;DHT22;9585;51.018;4.282;2023-10-13T00:14:15;16.80;99.90
18906;DHT22;9585;51.018;4.282;2023-10-13T00:16:44;16.80;99.90
18906;DHT22;9585;51.018;4.282;2023-10-13T00:19:27;16.80;99.90
18906;DHT22;9585;51.018;4.282;2023-10-13T00:22:04;16.80;99.90
18906;DHT22;9585;51.018;4.282;2023-10-13T00:24:36;16.80;99.90
18906;DHT22;9585;51.018;4.282;2023-10-13T00:27:14;16.80;99.90
18906;DHT22;9585;51.018;4.282;2023-10-13T00:30:00;16.80;99.90
18906;DHT22;9585;51.018;4.282;2023-10-13T00:32:49;16.80;99.90
18906;DHT22;9585;51.018;4.282;2023-10-13T00:35:21;16.80;99.90
18906;DHT22;9585;51.018;4.282;2023-10-13T00:37:54;16.80;99.90
18906;DHT22;9585;51.018;4.282;2023-10-13T00:40:22;16.80;99.90
18906;DHT22;9585;51.018;4.282;2023-10-13T00:43:08;16.80;99.90
18906;DHT22;9585;51.018;4.282;2023-10-13T00:45:54;16.80;99.90
18906;DHT22;9585;51.018;4.282;2023-10-13T00:48:24;16.80;99.90
18906;DHT22;9585;51.018;4.282;2023-10-13T00:50:56;16.90;99.90
18906;DHT22;9585;51.018;4.282;2023-10-13T00:53:29;16.90;99.90
18906;DHT22;9585;51.018;4.282;2023-10-13T00:55:59;16.90;99.90
18906;DHT22;9585;51.018;4.282;2023-10-13T00:58:35;16.90;99.90
18906;DHT22;9585;51.018;4.282;2023-10-13T01:01:04;16.90;99.90
18906;DHT22;9585;51.018;4.282;2023-10-13T01:03:45;16.90;99.90
18906;DHT22;9585;51.018;4.282;2023-10-13T01:06:16;16.90;99.90
18906;DHT22;9585;51.018;4.282;2023-10-13T01:08:46;16.90;99.90
18906;DHT22;9585;51.018;4.282;2023-10-13T01:11:18;16.90;99.90
18906;DHT22;9585;51.018;4.282;2023-10-13T01:13:51;16.90;99.90
18906;DHT22;9585;51.018;4.282;2023-10-13T01:18:54;16.90;99.90
18906;DHT22;9585;51.018;4.282;2023-10-13T01:21:26;16.90;99.90
18906;DHT22;9585;51.018;4.282;2023-10-13T01:23:55;17.00;99.90
18906;DHT22;9585;51.018;4.282;2023-10-13T01:26:23;17.00;99.90
18906;DHT22;9585;51.018;4.282;2023-10-13T01:28:51;17.00;99.90
18906;DHT22;9585;51.018;4.282;2023-10-13T01:31:20;17.10;99.90
18906;DHT22;9585;51.018;4.282;2023-10-13T01:33:55;17.10;99.90
18906;DHT22;9585;51.018;4.282;2023-10-13T01:36:26;17.10;99.90
18906;DHT22;9585;51.018;4.282;2023-10-13T01:38:53;17.10;99.90
18906;DHT22;9585;51.018;4.282;2023-10-13T01:41:22;17.10;99.90
18906;DHT22;9585;51.018;4.282;2023-10-13T01:43:49;17.10;99.90
18906;DHT22;9585;51.018;4.282;2023-10-13T01:46:17;17.20;99.90
18906;DHT22;9585;51.018;4.282;2023-10-13T01:48:48;17.10;99.90
18906;DHT22;9585;51.018;4.282;2023-10-13T01:51:15;17.10;99.90
18906;DHT22;9585;51.018;4.282;2023-10-13T01:53:42;17.10;99.90
18906;DHT22;9585;51.018;4.282;2023-10-13T01:56:10;17.10;99.90
18906;DHT22;9585;51.018;4.282;2023-10-13T01:58:40;17.20;99.90
18906;DHT22;9585;51.018;4.282;2023-10-13T02:01:09;17.10;99.90
18906;DHT22;9585;51.018;4.282;2023-10-13T02:03:36;17.10;99.90
18906;DHT22;9585;51.018;4.282;2023-10-13T02:06:12;17.10;99.90
18906;DHT22;9585;51.018;4.282;2023-10-13T02:08:44;17.10;99.90
18906;DHT22;9585;51.018;4.282;2023-10-13T02:11:17;17.10;99.90
18906;DHT22;9585;51.018;4.282;2023-10-13T02:13:46;17.00;99.90
18906;DHT22;9585;51.018;4.282;2023-10-13T02:16:16;17.00;99.90
18906;DHT22;9585;51.018;4.282;2023-10-13T02:18:47;17.00;99.90
18906;DHT22;9585;51.018;4.282;2023-10-13T02:21:17;17.00;99.90
18906;DHT22;9585;51.018;4.282;2023-10-13T02:23:44;17.00;99.90
18906;DHT22;9585;51.018;4.282;2023-10-13T02:26:25;17.00;99.90
18906;DHT22;9585;51.018;4.282;2023-10-13T02:28:58;17.10;99.90
18906;DHT22;9585;51.018;4.282;2023-10-13T02:31:28;17.10;99.90
18906;DHT22;9585;51.018;4.282;2023-10-13T02:33:54;17.10;99.90
18906;DHT22;9585;51.018;4.282;2023-10-13T02:36:22;17.10;99.90
18906;DHT22;9585;51.018;4.282;2023-10-13T02:39:03;17.10;99.90
18906;DHT22;9585;51.018;4.282;2023-10-13T02:41:34;17.10;99.90
18906;DHT22;9585;51.018;4.282;2023-10-13T02:44:05;17.20;99.90
18906;DHT22;9585;51.018;4.282;2023-10-13T02:46:34;17.20;99.90
18906;DHT22;9585;51.018;4.282;2023-10-13T02:49:02;17.20;99.90
18906;DHT22;9585;51.018;4.282;2023-10-13T02:51:36;17.20;99.90
18906;DHT22;9585;51.018;4.282;2023-10-13T02:54:03;17.20;99.90
18906;DHT22;9585;51.018;4.282;2023-10-13T02:56:36;17.20;99.90
18906;DHT22;9585;51.018;4.282;2023-10-13T02:59:05;17.20;99.90
18906;DHT22;9585;51.018;4.282;2023-10-13T03:01:34;17.20;99.90
18906;DHT22;9585;51.018;4.282;2023-10-13T03:04:02;17.20;99.90
18906;DHT22;9585;51.018;4.282;2023-10-13T03:06:35;17.20;99.90
18906;DHT22;9585;51.018;4.282;2023-10-13T03:09:03;17.20;99.90
18906;DHT22;9585;51.018;4.282;2023-10-13T03:11:44;17.20;99.90
18906;DHT22;9585;51.018;4.282;2023-10-13T03:14:17;17.20;99.90
18906;DHT22;9585;51.018;4.282;2023-10-13T03:16:55;17.20;99.90
18906;DHT22;9585;51.018;4.282;2023-10-13T03:19:21;17.20;99.90
18906;DHT22;9585;51.018;4.282;2023-10-13T03:21:58;17.30;99.90
18906;DHT22;9585;51.018;4.282;2023-10-13T03:24:33;17.20;99.90
18906;DHT22;9585;51.018;4.282;2023-10-13T03:27:01;17.20;99.90
18906;DHT22;9585;51.018;4.282;2023-10-13T03:29:36;17.20;99.90
18906;DHT22;9585;51.018;4.282;2023-10-13T03:32:05;17.10;99.90
18906;DHT22;9585;51.018;4.282;2023-10-13T03:34:38;17.20;99.90
18906;DHT22;9585;51.018;4.282;2023-10-13T03:37:17;17.10;99.90
18906;DHT22;9585;51.018;4.282;2023-10-13T03:40:04;17.20;99.90
18906;DHT22;9585;51.018;4.282;2023-10-13T03:42:54;17.20;99.90
18906;DHT22;9585;51.018;4.282;2023-10-13T03:45:39;17.20;99.90
18906;DHT22;9585;51.018;4.282;2023-10-13T03:48:10;17.10;99.90
18906;DHT22;9585;51.018;4.282;2023-10-13T03:50:55;17.10;99.90
18906;DHT22;9585;51.018;4.282;2023-10-13T03:53:29;17.20;99.90
18906;DHT22;9585;51.018;4.282;2023-10-13T03:55:59;17.20;99.90
18906;DHT22;9585;51.018;4.282;2023-10-13T03:58:38;17.20;99.90
18906;DHT22;9585;51.018;4.282;2023-10-13T04:01:14;17.20;99.90
18906;DHT22;9585;51.018;4.282;2023-10-13T04:03:43;17.10;99.90
18906;DHT22;9585;51.018;4.282;2023-10-13T04:06:30;17.10;99.90
18906;DHT22;9585;51.018;4.282;2023-10-13T04:09:14;17.10;99.90
18906;DHT22;9585;51.018;4.282;2023-10-13T04:11:59;17.00;99.90
18906;DHT22;9585;51.018;4.282;2023-10-13T04:14:42;17.00;99.90
18906;DHT22;9585;51.018;4.282;2023-10-13T04:17:37;17.00;99.90
18906;DHT22;9585;51.018;4.282;2023-10-13T04:20:11;17.00;99.90
18906;DHT22;9585;51.018;4.282;2023-10-13T04:22:41;17.00;99.90
18906;DHT22;9585;51.018;4.282;2023-10-13T04:25:27;17.00;99.90
18906;DHT22;9585;51.018;4.282;2023-10-13T04:28:06;17.00;99.90
18906;DHT22;9585;51.018;4.282;2023-10-13T04:30:52;17.00;99.90
18906;DHT22;9585;51.018;4.282;2023-10-13T04:33:28;17.00;99.90
18906;DHT22;9585;51.018;4.282;2023-10-13T04:36:13;17.10;99.90
18906;DHT22;9585;51.018;4.282;2023-10-13T04:38:44;16.90;99.90
18906;DHT22;9585;51.018;4.282;2023-10-13T04:41:26;16.90;99.90
18906;DHT22;9585;51.018;4.282;2023-10-13T04:43:58;17.00;99.90
18906;DHT22;9585;51.018;4.282;2023-10-13T04:46:49;17.00;99.90
18906;DHT22;9585;51.018;4.282;2023-10-13T04:49:40;16.90;99.90
18906;DHT22;9585;51.018;4.282;2023-10-13T04:52:19;16.90;99.90
18906;DHT22;9585;51.018;4.282;2023-10-13T04:55:17;16.90;99.90
18906;DHT22;9585;51.018;4.282;2023-10-13T04:57:59;16.90;99.90
18906;DHT22;9585;51.018;4.282;2023-10-13T05:00:40;17.00;99.90
18906;DHT22;9585;51.018;4.282;2023-10-13T05:03:41;17.00;99.90
18906;DHT22;9585;51.018;4.282;2023-10-13T05:06:36;16.90;99.90
18906;DHT22;9585;51.018;4.282;2023-10-13T05:09:32;16.90;99.90
18906;DHT22;9585;51.018;4.282;2023-10-13T05:12:26;16.90;99.90
18906;DHT22;9585;51.018;4.282;2023-10-13T05:15:10;16.90;99.90
18906;DHT22;9585;51.018;4.282;2023-10-13T05:17:55;16.90;99.90
18906;DHT22;9585;51.018;4.282;2023-10-13T05:20:39;17.00;99.90
18906;DHT22;9585;51.018;4.282;2023-10-13T05:23:25;17.00;99.90
18906;DHT22;9585;51.018;4.282;2023-10-13T05:26:10;17.00;99.90
18906;DHT22;9585;51.018;4.282;2023-10-13T05:28:55;17.00;99.90
18906;DHT22;9585;51.018;4.282;2023-10-13T05:31:39;17.00;99.90
18906;DHT22;9585;51.018;4.282;2023-10-13T05:34:24;17.00;99.90
18906;DHT22;9585;51.018;4.282;2023-10-13T05:37:08;17.10;99.90
18906;DHT22;9585;51.018;4.282;2023-10-13T05:39:55;17.10;99.90
18906;DHT22;9585;51.018;4.282;2023-10-13T05:42:40;17.00;99.90
18906;DHT22;9585;51.018;4.282;2023-10-13T05:45:25;17.00;99.90
18906;DHT22;9585;51.018;4.282;2023-10-13T05:48:24;17.00;99.90
18906;DHT22;9585;51.018;4.282;2023-10-13T05:51:07;17.00;99.90
18906;DHT22;9585;51.018;4.282;2023-10-13T05:53:52;17.00;99.90
18906;DHT22;9585;51.018;4.282;2023-10-13T05:56:39;17.00;99.90
18906;DHT22;9585;51.018;4.282;2023-10-13T05:59:24;17.00;99.90
18906;DHT22;9585;51.018;4.282;2023-10-13T06:02:09;17.00;99.90
18906;DHT22;9585;51.018;4.282;2023-10-13T06:04:53;16.90;99.90
18906;DHT22;9585;51.018;4.282;2023-10-13T06:07:38;17.00;99.90
18906;DHT22;9585;51.018;4.282;2023-10-13T06:10:32;17.00;99.90
18906;DHT22;9585;51.018;4.282;2023-10-13T06:13:18;17.00;99.90
18906;DHT22;9585;51.018;4.282;2023-10-13T06:16:05;17.00;99.90
18906;DHT22;9585;51.018;4.282;2023-10-13T06:18:50;17.00;99.90
18906;DHT22;9585;51.018;4.282;2023-10-13T06:21:35;17.00;99.90
18906;DHT22;9585;51.018;4.282;2023-10-13T06:24:20;17.00;99.90
18906;DHT22;9585;51.018;4.282;2023-10-13T06:27:05;17.00;99.90
18906;DHT22;9585;51.018;4.282;2023-10-13T06:30:00;17.00;99.90
18906;DHT22;9585;51.018;4.282;2023-10-13T06:32:29;17.00;99.90
18906;DHT22;9585;51.018;4.282;2023-10-13T06:34:58;17.10;99.90
18906;DHT22;9585;51.018;4.282;2023-10-13T06:37:34;17.10;99.90
18906;DHT22;9585;51.018;4.282;2023-10-13T06:40:12;17.20;99.90
18906;DHT22;9585;51.018;4.282;2023-10-13T06:42:48;17.20;99.90
18906;DHT22;9585;51.018;4.282;2023-10-13T06:45:17;17.30;99.90
18906;DHT22;9585;51.018;4.282;2023-10-13T06:47:46;17.30;99.90
18906;DHT22;9585;51.018;4.282;2023-10-13T06:50:18;17.30;99.90
18906;DHT22;9585;51.018;4.282;2023-10-13T06:52:50;17.30;99.90
18906;DHT22;9585;51.018;4.282;2023-10-13T06:55:21;17.30;99.90
18906;DHT22;9585;51.018;4.282;2023-10-13T06:57:53;17.30;99.90
18906;DHT22;9585;51.018;4.282;2023-10-13T07:00:27;17.40;99.90
18906;DHT22;9585;51.018;4.282;2023-10-13T07:02:56;17.40;99.90
18906;DHT22;9585;51.018;4.282;2023-10-13T07:05:36;17.40;99.90
18906;DHT22;9585;51.018;4.282;2023-10-13T07:08:05;17.40;99.90
18906;DHT22;9585;51.018;4.282;2023-10-13T07:10:33;17.60;99.90
18906;DHT22;9585;51.018;4.282;2023-10-13T07:13:11;17.60;99.90
18906;DHT22;9585;51.018;4.282;2023-10-13T07:15:41;17.70;99.90
18906;DHT22;9585;51.018;4.282;2023-10-13T07:18:12;17.80;99.90
18906;DHT22;9585;51.018;4.282;2023-10-13T07:20:41;17.80;99.90
18906;DHT22;9585;51.018;4.282;2023-10-13T07:23:12;17.80;99.90
18906;DHT22;9585;51.018;4.282;2023-10-13T07:25:52;17.90;99.90
18906;DHT22;9585;51.018;4.282;2023-10-13T07:28:21;18.00;99.90
18906;DHT22;9585;51.018;4.282;2023-10-13T07:30:51;18.00;99.90
18906;DHT22;9585;51.018;4.282;2023-10-13T07:33:39;18.10;99.90
18906;DHT22;9585;51.018;4.282;2023-10-13T07:36:09;18.20;99.90
18906;DHT22;9585;51.018;4.282;2023-10-13T07:38:45;18.10;99.90
18906;DHT22;9585;51.018;4.282;2023-10-13T07:41:26;18.10;99.90
18906;DHT22;9585;51.018;4.282;2023-10-13T07:43:56;18.20;99.90
18906;DHT22;9585;51.018;4.282;2023-10-13T07:46:27;18.20;99.90
18906;DHT22;9585;51.018;4.282;2023-10-13T07:48:57;18.20;99.90
18906;DHT22;9585;51.018;4.282;2023-10-13T07:51:35;18.30;99.90
18906;DHT22;9585;51.018;4.282;2023-10-13T07:54:11;18.40;99.90
18906;DHT22;9585;51.018;4.282;2023-10-13T07:56:40;18.50;99.90
18906;DHT22;9585;51.018;4.282;2023-10-13T07:59:08;18.80;99.90
18906;DHT22;9585;51.018;4.282;2023-10-13T08:01:37;18.90;99.90
18906;DHT22;9585;51.018;4.282;2023-10-13T08:04:09;18.90;99.90
18906;DHT22;9585;51.018;4.282;2023-10-13T08:06:39;18.80;99.90
18906;DHT22;9585;51.018;4.282;2023-10-13T08:09:09;18.80;99.90
18906;DHT22;9585;51.018;4.282;2023-10-13T08:11:54;18.90;99.90
18906;DHT22;9585;51.018;4.282;2023-10-13T08:14:22;19.00;99.90
18906;DHT22;9585;51.018;4.282;2023-10-13T08:16:56;19.10;99.90
18906;DHT22;9585;51.018;4.282;2023-10-13T08:19:27;19.10;99.90
18906;DHT22;9585;51.018;4.282;2023-10-13T08:22:05;19.00;99.90
18906;DHT22;9585;51.018;4.282;2023-10-13T08:24:50;19.10;99.90
18906;DHT22;9585;51.018;4.282;2023-10-13T08:27:41;19.20;99.90
18906;DHT22;9585;51.018;4.282;2023-10-13T08:30:34;19.20;99.90
18906;DHT22;9585;51.018;4.282;2023-10-13T08:33:20;19.20;99.90
18906;DHT22;9585;51.018;4.282;2023-10-13T08:35:53;19.20;99.90
18906;DHT22;9585;51.018;4.282;2023-10-13T08:38:54;19.20;99.90
18906;DHT22;9585;51.018;4.282;2023-10-13T08:41:23;19.20;99.90
18906;DHT22;9585;51.018;4.282;2023-10-13T08:44:03;19.10;99.90
18906;DHT22;9585;51.018;4.282;2023-10-13T08:46:32;19.20;99.90
18906;DHT22;9585;51.018;4.282;2023-10-13T08:49:27;19.20;99.90
18906;DHT22;9585;51.018;4.282;2023-10-13T08:51:56;19.10;99.90
18906;DHT22;9585;51.018;4.282;2023-10-13T08:54:35;19.10;99.90
18906;DHT22;9585;51.018;4.282;2023-10-13T08:57:05;19.10;99.90
18906;DHT22;9585;51.018;4.282;2023-10-13T08:59:46;19.30;99.90
18906;DHT22;9585;51.018;4.282;2023-10-13T09:02:21;19.40;99.90
18906;DHT22;9585;51.018;4.282;2023-10-13T09:05:12;19.60;99.90
18906;DHT22;9585;51.018;4.282;2023-10-13T09:07:53;19.50;99.90
18906;DHT22;9585;51.018;4.282;2023-10-13T09:10:22;19.60;99.90
18906;DHT22;9585;51.018;4.282;2023-10-13T09:12:59;19.80;99.90
18906;DHT22;9585;51.018;4.282;2023-10-13T09:15:30;19.80;99.90
18906;DHT22;9585;51.018;4.282;2023-10-13T09:18:11;19.80;99.90
18906;DHT22;9585;51.018;4.282;2023-10-13T09:21:10;19.80;99.90
18906;DHT22;9585;51.018;4.282;2023-10-13T09:23:58;19.80;99.90
18906;DHT22;9585;51.018;4.282;2023-10-13T09:26:47;19.80;99.90
18906;DHT22;9585;51.018;4.282;2023-10-13T09:29:19;19.70;99.90
18906;DHT22;9585;51.018;4.282;2023-10-13T09:32:01;19.70;99.90
18906;DHT22;9585;51.018;4.282;2023-10-13T09:34:29;19.70;99.90
18906;DHT22;9585;51.018;4.282;2023-10-13T09:37:01;19.70;99.90
18906;DHT22;9585;51.018;4.282;2023-10-13T09:39:30;19.70;99.90
18906;DHT22;9585;51.018;4.282;2023-10-13T09:42:11;19.70;99.90
18906;DHT22;9585;51.018;4.282;2023-10-13T09:44:39;19.70;99.90
18906;DHT22;9585;51.018;4.282;2023-10-13T09:47:10;19.80;99.90
18906;DHT22;9585;51.018;4.282;2023-10-13T09:49:46;19.80;99.90
18906;DHT22;9585;51.018;4.282;2023-10-13T09:52:18;19.80;99.90
18906;DHT22;9585;51.018;4.282;2023-10-13T09:55:02;19.80;99.90
18906;DHT22;9585;51.018;4.282;2023-10-13T09:57:34;19.70;99.90
18906;DHT22;9585;51.018;4.282;2023-10-13T10:00:09;19.60;99.90
18906;DHT22;9585;51.018;4.282;2023-10-13T10:02:55;19.50;99.90
18906;DHT22;9585;51.018;4.282;2023-10-13T10:05:41;19.50;99.90
18906;DHT22;9585;51.018;4.282;2023-10-13T10:08:09;19.40;99.90
18906;DHT22;9585;51.018;4.282;2023-10-13T10:10:50;19.40;99.90
18906;DHT22;9585;51.018;4.282;2023-10-13T10:13:35;19.50;99.90
18906;DHT22;9585;51.018;4.282;2023-10-13T10:16:11;19.50;99.90
18906;DHT22;9585;51.018;4.282;2023-10-13T10:18:41;19.60;99.90
18906;DHT22;9585;51.018;4.282;2023-10-13T10:21:10;19.70;99.90
18906;DHT22;9585;51.018;4.282;2023-10-13T10:23:53;19.70;99.90
18906;DHT22;9585;51.018;4.282;2023-10-13T10:26:21;19.70;99.90
18906;DHT22;9585;51.018;4.282;2023-10-13T10:28:51;19.70;99.90
18906;DHT22;9585;51.018;4.282;2023-10-13T10:31:20;19.70;99.90
18906;DHT22;9585;51.018;4.282;2023-10-13T10:34:12;19.70;99.90
18906;DHT22;9585;51.018;4.282;2023-10-13T10:36:41;19.80;99.90
18906;DHT22;9585;51.018;4.282;2023-10-13T10:39:14;20.00;99.90
18906;DHT22;9585;51.018;4.282;2023-10-13T10:41:43;19.90;99.90
18906;DHT22;9585;51.018;4.282;2023-10-13T10:44:19;20.00;99.90
18906;DHT22;9585;51.018;4.282;2023-10-13T10:47:10;20.10;99.90
18906;DHT22;9585;51.018;4.282;2023-10-13T10:49:45;20.10;99.90
18906;DHT22;9585;51.018;4.282;2023-10-13T10:52:17;20.20;99.90
18906;DHT22;9585;51.018;4.282;2023-10-13T10:54:58;20.30;99.90
18906;DHT22;9585;51.018;4.282;2023-10-13T10:57:27;20.20;99.90
18906;DHT22;9585;51.018;4.282;2023-10-13T11:00:04;20.30;99.90
18906;DHT22;9585;51.018;4.282;2023-10-13T11:02:40;20.40;99.90
18906;DHT22;9585;51.018;4.282;2023-10-13T11:05:08;20.40;99.90
18906;DHT22;9585;51.018;4.282;2023-10-13T11:07:37;20.40;99.90
18906;DHT22;9585;51.018;4.282;2023-10-13T11:10:10;20.40;99.90
18906;DHT22;9585;51.018;4.282;2023-10-13T11:12:55;20.50;99.90
18906;DHT22;9585;51.018;4.282;2023-10-13T11:15:23;20.50;99.90
18906;DHT22;9585;51.018;4.282;2023-10-13T11:17:59;20.60;99.90
18906;DHT22;9585;51.018;4.282;2023-10-13T11:20:31;20.60;99.90
18906;DHT22;9585;51.018;4.282;2023-10-13T11:23:11;20.70;99.90
18906;DHT22;9585;51.018;4.282;2023-10-13T11:25:41;20.70;99.90
18906;DHT22;9585;51.018;4.282;2023-10-13T11:28:11;20.60;99.90
18906;DHT22;9585;51.018;4.282;2023-10-13T11:30:46;20.60;99.90
18906;DHT22;9585;51.018;4.282;2023-10-13T11:33:18;20.60;99.90
18906;DHT22;9585;51.018;4.282;2023-10-13T11:35:49;20.60;99.90
18906;DHT22;9585;51.018;4.282;2023-10-13T11:38:25;20.60;99.90
18906;DHT22;9585;51.018;4.282;2023-10-13T11:40:55;20.80;99.90
18906;DHT22;9585;51.018;4.282;2023-10-13T11:43:39;20.90;99.90
18906;DHT22;9585;51.018;4.282;2023-10-13T11:46:25;20.90;99.90
18906;DHT22;9585;51.018;4.282;2023-10-13T11:49:11;21.00;99.90
18906;DHT22;9585;51.018;4.282;2023-10-13T11:51:49;20.90;99.90
18906;DHT22;9585;51.018;4.282;2023-10-13T11:54:18;20.90;99.90
18906;DHT22;9585;51.018;4.282;2023-10-13T11:56:50;21.10;99.90
18906;DHT22;9585;51.018;4.282;2023-10-13T11:59:18;21.10;99.90
18906;DHT22;9585;51.018;4.282;2023-10-13T12:01:51;21.10;99.90
18906;DHT22;9585;51.018;4.282;2023-10-13T12:04:38;21.20;99.90
18906;DHT22;9585;51.018;4.282;2023-10-13T12:07:15;21.30;99.90
18906;DHT22;9585;51.018;4.282;2023-10-13T12:09:50;21.30;99.90
18906;DHT22;9585;51.018;4.282;2023-10-13T12:12:34;21.20;99.90
18906;DHT22;9585;51.018;4.282;2023-10-13T12:15:09;21.20;99.90
18906;DHT22;9585;51.018;4.282;2023-10-13T12:17:51;21.10;99.90
18906;DHT22;9585;51.018;4.282;2023-10-13T12:20:24;21.00;99.90
18906;DHT22;9585;51.018;4.282;2023-10-13T12:23:01;21.00;99.90
18906;DHT22;9585;51.018;4.282;2023-10-13T12:25:44;20.90;99.90
18906;DHT22;9585;51.018;4.282;2023-10-13T12:28:24;20.90;99.90
18906;DHT22;9585;51.018;4.282;2023-10-13T12:30:56;20.90;99.90
18906;DHT22;9585;51.018;4.282;2023-10-13T12:33:25;20.90;99.90
18906;DHT22;9585;51.018;4.282;2023-10-13T12:36:04;20.80;99.90
18906;DHT22;9585;51.018;4.282;2023-10-13T12:38:43;20.90;99.90
18906;DHT22;9585;51.018;4.282;2023-10-13T12:41:28;20.90;99.90
18906;DHT22;9585;51.018;4.282;2023-10-13T12:44:15;20.90;99.90
18906;DHT22;9585;51.018;4.282;2023-10-13T12:46:59;20.90;99.90
18906;DHT22;9585;51.018;4.282;2023-10-13T12:49:41;21.10;99.90
18906;DHT22;9585;51.018;4.282;2023-10-13T12:52:24;21.20;99.90
18906;DHT22;9585;51.018;4.282;2023-10-13T12:54:58;21.30;99.90
18906;DHT22;9585;51.018;4.282;2023-10-13T12:57:34;21.30;99.90
18906;DHT22;9585;51.018;4.282;2023-10-13T13:00:12;21.30;99.90
18906;DHT22;9585;51.018;4.282;2023-10-13T13:03:00;21.30;99.90
18906;DHT22;9585;51.018;4.282;2023-10-13T13:05:38;21.20;99.90
18906;DHT22;9585;51.018;4.282;2023-10-13T13:08:11;21.10;99.90
18906;DHT22;9585;51.018;4.282;2023-10-13T13:10:48;21.10;99.90
18906;DHT22;9585;51.018;4.282;2023-10-13T13:13:16;21.10;99.90
18906;DHT22;9585;51.018;4.282;2023-10-13T13:15:52;21.00;99.90
18906;DHT22;9585;51.018;4.282;2023-10-13T13:18:23;21.00;99.90
18906;DHT22;9585;51.018;4.282;2023-10-13T13:20:51;21.10;99.90
18906;DHT22;9585;51.018;4.282;2023-10-13T13:23:22;21.20;99.90
18906;DHT22;9585;51.018;4.282;2023-10-13T13:25:52;21.20;99.90
18906;DHT22;9585;51.018;4.282;2023-10-13T13:28:20;21.30;99.90
18906;DHT22;9585;51.018;4.282;2023-10-13T13:30:52;21.30;99.90
18906;DHT22;9585;51.018;4.282;2023-10-13T13:33:20;21.30;99.90
18906;DHT22;9585;51.018;4.282;2023-10-13T13:35:54;21.40;99.90
18906;DHT22;9585;51.018;4.282;2023-10-13T13:38:25;21.40;99.90
18906;DHT22;9585;51.018;4.282;2023-10-13T13:40:58;21.40;99.90
18906;DHT22;9585;51.018;4.282;2023-10-13T13:43:28;21.40;99.90
18906;DHT22;9585;51.018;4.282;2023-10-13T13:46:06;21.50;99.90
18906;DHT22;9585;51.018;4.282;2023-10-13T13:48:37;21.50;99.90
18906;DHT22;9585;51.018;4.282;2023-10-13T13:51:06;21.50;99.90
18906;DHT22;9585;51.018;4.282;2023-10-13T13:53:41;21.50;99.90
18906;DHT22;9585;51.018;4.282;2023-10-13T13:56:11;21.50;99.90
18906;DHT22;9585;51.018;4.282;2023-10-13T13:58:44;21.30;99.90
18906;DHT22;9585;51.018;4.282;2023-10-13T14:01:14;21.40;99.90
18906;DHT22;9585;51.018;4.282;2023-10-13T14:03:45;21.60;99.90
18906;DHT22;9585;51.018;4.282;2023-10-13T14:06:14;21.50;99.90
18906;DHT22;9585;51.018;4.282;2023-10-13T14:08:48;21.50;99.90
18906;DHT22;9585;51.018;4.282;2023-10-13T14:11:17;21.50;99.90
18906;DHT22;9585;51.018;4.282;2023-10-13T14:14:12;21.60;99.90
18906;DHT22;9585;51.018;4.282;2023-10-13T14:16:57;21.70;99.90
18906;DHT22;9585;51.018;4.282;2023-10-13T14:19:33;21.50;99.90
18906;DHT22;9585;51.018;4.282;2023-10-13T14:22:06;21.50;99.90
18906;DHT22;9585;51.018;4.282;2023-10-13T14:24:38;21.40;99.90
18906;DHT22;9585;51.018;4.282;2023-10-13T14:27:15;21.30;99.90
18906;DHT22;9585;51.018;4.282;2023-10-13T14:29:46;21.30;99.90
18906;DHT22;9585;51.018;4.282;2023-10-13T14:32:21;21.30;99.90
18906;DHT22;9585;51.018;4.282;2023-10-13T14:34:56;21.40;99.90
18906;DHT22;9585;51.018;4.282;2023-10-13T14:37:24;21.40;99.90
18906;DHT22;9585;51.018;4.282;2023-10-13T14:39:57;21.40;99.90
18906;DHT22;9585;51.018;4.282;2023-10-13T14:42:29;21.30;99.90
18906;DHT22;9585;51.018;4.282;2023-10-13T14:45:01;21.30;99.90
18906;DHT22;9585;51.018;4.282;2023-10-13T14:47:40;21.20;99.90
18906;DHT22;9585;51.018;4.282;2023-10-13T14:50:09;21.10;99.90
18906;DHT22;9585;51.018;4.282;2023-10-13T14:52:46;21.00;99.90
18906;DHT22;9585;51.018;4.282;2023-10-13T14:55:17;20.90;99.90
18906;DHT22;9585;51.018;4.282;2023-10-13T14:58:06;20.80;99.90
18906;DHT22;9585;51.018;4.282;2023-10-13T15:00:40;20.80;99.90
18906;DHT22;9585;51.018;4.282;2023-10-13T15:03:13;20.70;99.90
18906;DHT22;9585;51.018;4.282;2023-10-13T15:05:41;20.80;99.90
18906;DHT22;9585;51.018;4.282;2023-10-13T15:08:09;20.70;99.90
18906;DHT22;9585;51.018;4.282;2023-10-13T15:10:38;20.60;99.90
18906;DHT22;9585;51.018;4.282;2023-10-13T15:13:09;20.50;99.90
18906;DHT22;9585;51.018;4.282;2023-10-13T15:15:37;20.40;99.90
18906;DHT22;9585;51.018;4.282;2023-10-13T15:18:06;20.40;99.90
18906;DHT22;9585;51.018;4.282;2023-10-13T15:20:42;20.40;99.90
18906;DHT22;9585;51.018;4.282;2023-10-13T15:23:10;20.50;99.90
18906;DHT22;9585;51.018;4.282;2023-10-13T15:25:43;20.40;99.90
18906;DHT22;9585;51.018;4.282;2023-10-13T15:28:18;20.40;99.90
18906;DHT22;9585;51.018;4.282;2023-10-13T15:30:54;20.40;99.90
18906;DHT22;9585;51.018;4.282;2023-10-13T15:33:35;20.40;99.90
18906;DHT22;9585;51.018;4.282;2023-10-13T15:36:11;20.40;99.90
18906;DHT22;9585;51.018;4.282;2023-10-13T15:38:43;20.40;99.90
18906;DHT22;9585;51.018;4.282;2023-10-13T15:41:26;20.40;99.90
18906;DHT22;9585;51.018;4.282;2023-10-13T15:43:55;20.30;99.90
18906;DHT22;9585;51.018;4.282;2023-10-13T15:46:23;20.30;99.90
18906;DHT22;9585;51.018;4.282;2023-10-13T15:48:52;20.30;99.90
18906;DHT22;9585;51.018;4.282;2023-10-13T15:51:23;20.30;99.90
18906;DHT22;9585;51.018;4.282;2023-10-13T15:53:51;20.30;99.90
18906;DHT22;9585;51.018;4.282;2023-10-13T15:56:19;20.20;99.90
18906;DHT22;9585;51.018;4.282;2023-10-13T15:58:51;20.10;99.90
18906;DHT22;9585;51.018;4.282;2023-10-13T16:01:35;20.10;99.90
18906;DHT22;9585;51.018;4.282;2023-10-13T16:04:05;19.90;99.90
18906;DHT22;9585;51.018;4.282;2023-10-13T16:06:42;19.60;99.90
18906;DHT22;9585;51.018;4.282;2023-10-13T16:09:12;19.50;99.90
18906;DHT22;9585;51.018;4.282;2023-10-13T16:11:41;19.30;99.90
18906;DHT22;9585;51.018;4.282;2023-10-13T16:14:10;19.10;99.90
18906;DHT22;9585;51.018;4.282;2023-10-13T16:16:42;19.10;99.90
18906;DHT22;9585;51.018;4.282;2023-10-13T16:19:13;19.00;99.90
18906;DHT22;9585;51.018;4.282;2023-10-13T16:21:45;18.90;99.90
18906;DHT22;9585;51.018;4.282;2023-10-13T16:24:13;18.80;99.90
18906;DHT22;9585;51.018;4.282;2023-10-13T16:26:44;18.70;99.90
18906;DHT22;9585;51.018;4.282;2023-10-13T16:29:15;18.60;99.90
18906;DHT22;9585;51.018;4.282;2023-10-13T16:31:43;18.60;99.90
18906;DHT22;9585;51.018;4.282;2023-10-13T16:34:12;18.50;99.90
18906;DHT22;9585;51.018;4.282;2023-10-13T16:36:41;18.40;99.90
18906;DHT22;9585;51.018;4.282;2023-10-13T16:39:15;18.40;99.90
18906;DHT22;9585;51.018;4.282;2023-10-13T16:41:44;18.20;99.90